sensor_id;sensor_type;location;lat;lon;timestamp;pressure;altitude;pressure_sealevel;temperature
6454;BMP180;3260;52.438;13.502;2023-10-19T04:02:03;99471.00;;;9.10
6454;BMP180;3260;52.438;13.502;2023-10-19T04:04:36;99470.00;;;8.90
6454;BMP180;3260;52.438;13.502;2023-10-19T04:07:06;99481.00;;;8.70
6454;BMP180;3260;52.438;13.502;2023-10-19T04:09:45;99484.00;;;8.90
6454;BMP180;3260;52.438;13.502;2023-10-19T04:12:28;99471.00;;;9.20
6454;BMP180;3260;52.438;13.502;2023-10-19T04:14:59;99473.00;;;9.10
6454;BMP180;3260;52.438;13.502;2023-10-19T04:17:39;99469.00;;;9.10
6454;BMP180;3260;52.438;13.502;2023-10-19T04:20:10;99459.00;;;8.90
6454;BMP180;3260;52.438;13.502;2023-10-19T04:22:53;99459.00;;;9.30
6454;BMP180;3260;52.438;13.502;2023-10-19T04:25:22;99456.00;;;9.00
6454;BMP180;3260;52.438;13.502;2023-10-19T04:27:53;99455.00;;;9.00
6454;BMP180;3260;52.438;13.502;2023-10-19T04:30:24;99445.00;;;9.30
6454;BMP180;3260;52.438;13.502;2023-10-19T04:32:55;99460.00;;;9.30
6454;BMP180;3260;52.438;13.502;2023-10-19T04:35:25;99448.00;;;9.00
6454;BMP180;3260;52.438;13.502;2023-10-19T04:37:57;99444.00;;;9.00
6454;BMP180;3260;52.438;13.502;2023-10-19T04:40:27;99445.00;;;9.00
6454;BMP180;3260;52.438;13.502;2023-10-19T04:42:55;99437.00;;;9.00
6454;BMP180;3260;52.438;13.502;2023-10-19T04:45:24;99438.00;;;8.70
6454;BMP180;3260;52.438;13.502;2023-10-19T04:47:52;99441.00;;;9.00
6454;BMP180;3260;52.438;13.502;2023-10-19T04:50:23;99428.00;;;8.90
6454;BMP180;3260;52.438;13.502;2023-10-19T04:52:52;99423.00;;;8.80
6454;BMP180;3260;52.438;13.502;2023-10-19T04:55:20;99430.00;;;9.00
6454;BMP180;3260;52.438;13.502;2023-10-19T04:57:49;99426.00;;;9.20
6454;BMP180;3260;52.438;13.502;2023-10-19T05:00:17;99417.00;;;9.10
6454;BMP180;3260;52.438;13.502;2023-10-19T05:02:48;99419.00;;;8.80
6454;BMP180;3260;52.438;13.502;2023-10-19T05:05:19;99415.00;;;9.20
6454;BMP180;3260;52.438;13.502;2023-10-19T05:07:49;99423.00;;;9.10
6454;BMP180;3260;52.438;13.502;2023-10-19T05:10:17;99415.00;;;9.10
6454;BMP180;3260;52.438;13.502;2023-10-19T05:12:47;99406.00;;;9.00
6454;BMP180;3260;52.438;13.502;2023-10-19T05:15:16;99415.00;;;9.10
6454;BMP180;3260;52.438;13.502;2023-10-19T05:17:45;99401.00;;;8.90
6454;BMP180;3260;52.438;13.502;2023-10-19T05:20:14;99398.00;;;8.90
6454;BMP180;3260;52.438;13.502;2023-10-19T05:22:43;99393.00;;;8.90
6454;BMP180;3260;52.438;13.502;2023-10-19T05:25:13;99387.00;;;8.70
6454;BMP180;3260;52.438;13.502;2023-10-19T05:27:42;99377.00;;;9.10
6454;BMP180;3260;52.438;13.502;2023-10-19T05:30:13;99377.00;;;9.20
6454;BMP180;3260;52.438;13.502;2023-10-19T05:32:41;99374.00;;;9.20
6454;BMP180;3260;52.438;13.502;2023-10-19T05:35:10;99376.00;;;9.10
6454;BMP180;3260;52.438;13.502;2023-10-19T05:37:40;99380.00;;;8.90
6454;BMP180;3260;52.438;13.502;2023-10-19T05:40:10;99392.00;;;9.40
6454;BMP180;3260;52.438;13.502;2023-10-19T05:42:43;99404.00;;;9.30
6454;BMP180;3260;52.438;13.502;2023-10-19T05:45:13;99401.00;;;9.20
6454;BMP180;3260;52.438;13.502;2023-10-19T05:47:44;99398.00;;;9.20
6454;BMP180;3260;52.438;13.502;2023-10-19T05:50:13;99410.00;;;9.20
6454;BMP180;3260;52.438;13.502;2023-10-19T05:52:43;99416.00;;;9.20
6454;BMP180;3260;52.438;13.502;2023-10-19T05:55:11;99407.00;;;9.30
6454;BMP180;3260;52.438;13.502;2023-10-19T05:57:40;99416.00;;;9.30
6454;BMP180;3260;52.438;13.502;2023-10-19T06:00:09;99413.00;;;9.10
6454;BMP180;3260;52.438;13.502;2023-10-19T06:02:42;99433.00;;;9.40
6454;BMP180;3260;52.438;13.502;2023-10-19T06:05:12;99429.00;;;9.40
6454;BMP180;3260;52.438;13.502;2023-10-19T06:07:43;99429.00;;;9.60
6454;BMP180;3260;52.438;13.502;2023-10-19T06:10:11;99416.00;;;9.20
6454;BMP180;3260;52.438;13.502;2023-10-19T06:12:43;99428.00;;;9.40
6454;BMP180;3260;52.438;13.502;2023-10-19T06:15:13;99409.00;;;9.50
6454;BMP180;3260;52.438;13.502;2023-10-19T06:17:42;99404.00;;;9.70
6454;BMP180;3260;52.438;13.502;2023-10-19T06:20:12;99394.00;;;9.20
6454;BMP180;3260;52.438;13.502;2023-10-19T06:22:51;99389.00;;;9.40
6454;BMP180;3260;52.438;13.502;2023-10-19T06:25:20;99383.00;;;9.60
6454;BMP180;3260;52.438;13.502;2023-10-19T06:27:49;99383.00;;;9.40
6454;BMP180;3260;52.438;13.502;2023-10-19T06:30:19;99368.00;;;9.50
6454;BMP180;3260;52.438;13.502;2023-10-19T06:32:51;99380.00;;;9.40
6454;BMP180;3260;52.438;13.502;2023-10-19T06:35:20;99376.00;;;9.40
6454;BMP180;3260;52.438;13.502;2023-10-19T06:37:48;99361.00;;;9.30
6454;BMP180;3260;52.438;13.502;2023-10-19T06:40:17;99365.00;;;9.60
6454;BMP180;3260;52.438;13.502;2023-10-19T06:42:46;99354.00;;;9.40
6454;BMP180;3260;52.438;13.502;2023-10-19T06:45:15;99347.00;;;9.40
6454;BMP180;3260;52.438;13.502;2023-10-19T06:47:45;99350.00;;;9.30
6454;BMP180;3260;52.438;13.502;2023-10-19T06:50:14;99346.00;;;9.70
6454;BMP180;3260;52.438;13.502;2023-10-19T06:52:43;99337.00;;;9.60
6454;BMP180;3260;52.438;13.502;2023-10-19T06:55:14;99337.00;;;9.40
6454;BMP180;3260;52.438;13.502;2023-10-19T06:57:44;99343.00;;;9.20
6454;BMP180;3260;52.438;13.502;2023-10-19T07:00:13;99348.00;;;9.70
6454;BMP180;3260;52.438;13.502;2023-10-19T07:02:48;99334.00;;;9.80
6454;BMP180;3260;52.438;13.502;2023-10-19T07:05:18;99338.00;;;9.60
6454;BMP180;3260;52.438;13.502;2023-10-19T07:07:49;99329.00;;;9.50
6454;BMP180;3260;52.438;13.502;2023-10-19T07:10:19;99324.00;;;9.70
6454;BMP180;3260;52.438;13.502;2023-10-19T07:12:48;99331.00;;;9.70
6454;BMP180;3260;52.438;13.502;2023-10-19T07:15:19;99335.00;;;9.80
6454;BMP180;3260;52.438;13.502;2023-10-19T07:17:50;99330.00;;;9.90
6454;BMP180;3260;52.438;13.502;2023-10-19T07:20:21;99316.00;;;9.90
6454;BMP180;3260;52.438;13.502;2023-10-19T07:22:52;99313.00;;;10.00
6454;BMP180;3260;52.438;13.502;2023-10-19T07:25:21;99312.00;;;9.80
6454;BMP180;3260;52.438;13.502;2023-10-19T07:27:50;99324.00;;;10.20
6454;BMP180;3260;52.438;13.502;2023-10-19T07:30:19;99331.00;;;9.80
6454;BMP180;3260;52.438;13.502;2023-10-19T07:32:49;99327.00;;;9.90
6454;BMP180;3260;52.438;13.502;2023-10-19T07:35:23;99327.00;;;9.90
6454;BMP180;3260;52.438;13.502;2023-10-19T07:37:53;99329.00;;;10.30
6454;BMP180;3260;52.438;13.502;2023-10-19T07:40:21;99333.00;;;10.00
6454;BMP180;3260;52.438;13.502;2023-10-19T07:42:51;99342.00;;;10.10
6454;BMP180;3260;52.438;13.502;2023-10-19T07:45:21;99349.00;;;10.10
6454;BMP180;3260;52.438;13.502;2023-10-19T07:47:50;99342.00;;;10.40
6454;BMP180;3260;52.438;13.502;2023-10-19T07:50:19;99347.00;;;10.50
6454;BMP180;3260;52.438;13.502;2023-10-19T07:52:51;99345.00;;;10.50
6454;BMP180;3260;52.438;13.502;2023-10-19T07:55:21;99341.00;;;10.30
6454;BMP180;3260;52.438;13.502;2023-10-19T07:57:51;99336.00;;;9.90
6454;BMP180;3260;52.438;13.502;2023-10-19T08:00:19;99340.00;;;10.00
6454;BMP180;3260;52.438;13.502;2023-10-19T08:02:49;99332.00;;;10.00
6454;BMP180;3260;52.438;13.502;2023-10-19T08:05:18;99334.00;;;10.10
6454;BMP180;3260;52.438;13.502;2023-10-19T08:07:47;99340.00;;;10.30
6454;BMP180;3260;52.438;13.502;2023-10-19T08:10:17;99343.00;;;10.40
6454;BMP180;3260;52.438;13.502;2023-10-19T08:12:47;99343.00;;;10.60
6454;BMP180;3260;52.438;13.502;2023-10-19T08:15:16;99339.00;;;10.60
6454;BMP180;3260;52.438;13.502;2023-10-19T08:17:45;99334.00;;;10.70
6454;BMP180;3260;52.438;13.502;2023-10-19T08:20:14;99331.00;;;10.80
6454;BMP180;3260;52.438;13.502;2023-10-19T08:22:50;99327.00;;;11.10
6454;BMP180;3260;52.438;13.502;2023-10-19T08:25:21;99328.00;;;11.10
6454;BMP180;3260;52.438;13.502;2023-10-19T08:27:50;99327.00;;;10.80
6454;BMP180;3260;52.438;13.502;2023-10-19T08:30:19;99319.00;;;10.90
6454;BMP180;3260;52.438;13.502;2023-10-19T08:32:50;99315.00;;;11.40
6454;BMP180;3260;52.438;13.502;2023-10-19T08:35:20;99305.00;;;11.50
6454;BMP180;3260;52.438;13.502;2023-10-19T08:37:52;99309.00;;;11.30
6454;BMP180;3260;52.438;13.502;2023-10-19T08:40:22;99307.00;;;11.50
6454;BMP180;3260;52.438;13.502;2023-10-19T08:42:54;99282.00;;;11.60
6454;BMP180;3260;52.438;13.502;2023-10-19T08:45:22;99270.00;;;11.70
6454;BMP180;3260;52.438;13.502;2023-10-19T08:47:52;99273.00;;;11.20
6454;BMP180;3260;52.438;13.502;2023-10-19T08:50:23;99282.00;;;11.20
6454;BMP180;3260;52.438;13.502;2023-10-19T08:52:52;99285.00;;;11.30
6454;BMP180;3260;52.438;13.502;2023-10-19T08:55:22;99284.00;;;11.30
6454;BMP180;3260;52.438;13.502;2023-10-19T08:58:11;99285.00;;;11.60
6454;BMP180;3260;52.438;13.502;2023-10-19T09:00:43;99284.00;;;10.90
6454;BMP180;3260;52.438;13.502;2023-10-19T09:03:15;99281.00;;;11.30
6454;BMP180;3260;52.438;13.502;2023-10-19T09:05:45;99275.00;;;11.20
6454;BMP180;3260;52.438;13.502;2023-10-19T09:08:15;99273.00;;;11.00
6454;BMP180;3260;52.438;13.502;2023-10-19T09:10:46;99272.00;;;11.30
6454;BMP180;3260;52.438;13.502;2023-10-19T09:13:16;99267.00;;;11.20
6454;BMP180;3260;52.438;13.502;2023-10-19T09:15:47;99269.00;;;11.20
6454;BMP180;3260;52.438;13.502;2023-10-19T09:18:17;99264.00;;;10.60
6454;BMP180;3260;52.438;13.502;2023-10-19T09:20:47;99264.00;;;10.90
6454;BMP180;3260;52.438;13.502;2023-10-19T09:23:23;99264.00;;;11.20
6454;BMP180;3260;52.438;13.502;2023-10-19T09:25:55;99260.00;;;10.80
6454;BMP180;3260;52.438;13.502;2023-10-19T09:28:24;99267.00;;;11.10
6454;BMP180;3260;52.438;13.502;2023-10-19T09:30:52;99251.00;;;11.00
6454;BMP180;3260;52.438;13.502;2023-10-19T09:33:21;99255.00;;;11.30
6454;BMP180;3260;52.438;13.502;2023-10-19T09:35:51;99249.00;;;11.50
6454;BMP180;3260;52.438;13.502;2023-10-19T09:38:23;99251.00;;;11.60
6454;BMP180;3260;52.438;13.502;2023-10-19T09:40:54;99235.00;;;11.80
6454;BMP180;3260;52.438;13.502;2023-10-19T09:43:30;99246.00;;;11.60
6454;BMP180;3260;52.438;13.502;2023-10-19T09:46:01;99243.00;;;11.70
6454;BMP180;3260;52.438;13.502;2023-10-19T09:48:32;99254.00;;;11.60
6454;BMP180;3260;52.438;13.502;2023-10-19T09:51:03;99254.00;;;11.20
6454;BMP180;3260;52.438;13.502;2023-10-19T09:53:31;99250.00;;;11.60
6454;BMP180;3260;52.438;13.502;2023-10-19T09:56:01;99253.00;;;11.10
6454;BMP180;3260;52.438;13.502;2023-10-19T09:58:40;99253.00;;;11.20
6454;BMP180;3260;52.438;13.502;2023-10-19T10:01:10;99247.00;;;11.40
6454;BMP180;3260;52.438;13.502;2023-10-19T10:03:44;99247.00;;;11.40
6454;BMP180;3260;52.438;13.502;2023-10-19T10:06:13;99231.00;;;11.10
6454;BMP180;3260;52.438;13.502;2023-10-19T10:08:42;99231.00;;;11.10
6454;BMP180;3260;52.438;13.502;2023-10-19T10:11:17;99237.00;;;11.10
6454;BMP180;3260;52.438;13.502;2023-10-19T10:13:46;99243.00;;;11.30
6454;BMP180;3260;52.438;13.502;2023-10-19T10:16:19;99240.00;;;11.40
6454;BMP180;3260;52.438;13.502;2023-10-19T10:18:48;99236.00;;;11.70
6454;BMP180;3260;52.438;13.502;2023-10-19T10:21:18;99244.00;;;11.80
6454;BMP180;3260;52.438;13.502;2023-10-19T10:23:48;99231.00;;;11.10
6454;BMP180;3260;52.438;13.502;2023-10-19T10:26:19;99241.00;;;10.90
6454;BMP180;3260;52.438;13.502;2023-10-19T10:29:10;99233.00;;;11.30
6454;BMP180;3260;52.438;13.502;2023-10-19T10:31:41;99225.00;;;11.20
6454;BMP180;3260;52.438;13.502;2023-10-19T10:34:10;99214.00;;;11.10
6454;BMP180;3260;52.438;13.502;2023-10-19T10:39:25;99217.00;;;11.10
6454;BMP180;3260;52.438;13.502;2023-10-19T10:41:57;99206.00;;;11.20
6454;BMP180;3260;52.438;13.502;2023-10-19T10:44:35;99207.00;;;11.30
6454;BMP180;3260;52.438;13.502;2023-10-19T10:47:05;99214.00;;;11.20
6454;BMP180;3260;52.438;13.502;2023-10-19T10:49:48;99206.00;;;11.00
6454;BMP180;3260;52.438;13.502;2023-10-19T10:52:24;99204.00;;;11.30
6454;BMP180;3260;52.438;13.502;2023-10-19T10:54:53;99205.00;;;11.20
6454;BMP180;3260;52.438;13.502;2023-10-19T10:57:23;99206.00;;;11.30
6454;BMP180;3260;52.438;13.502;2023-10-19T11:00:02;99196.00;;;10.80
6454;BMP180;3260;52.438;13.502;2023-10-19T11:02:32;99195.00;;;10.90
6454;BMP180;3260;52.438;13.502;2023-10-19T11:05:01;99185.00;;;10.80
6454;BMP180;3260;52.438;13.502;2023-10-19T11:07:30;99194.00;;;10.70
6454;BMP180;3260;52.438;13.502;2023-10-19T11:09:59;99195.00;;;11.00
6454;BMP180;3260;52.438;13.502;2023-10-19T11:12:30;99199.00;;;10.90
6454;BMP180;3260;52.438;13.502;2023-10-19T11:14:59;99201.00;;;11.10
6454;BMP180;3260;52.438;13.502;2023-10-19T11:17:28;99207.00;;;11.00
6454;BMP180;3260;52.438;13.502;2023-10-19T11:19:58;99195.00;;;11.20
6454;BMP180;3260;52.438;13.502;2023-10-19T11:22:27;99187.00;;;11.20
6454;BMP180;3260;52.438;13.502;2023-10-19T11:24:55;99189.00;;;11.30
6454;BMP180;3260;52.438;13.502;2023-10-19T11:27:24;99176.00;;;11.20
6454;BMP180;3260;52.438;13.502;2023-10-19T11:29:56;99167.00;;;11.30
6454;BMP180;3260;52.438;13.502;2023-10-19T11:32:25;99169.00;;;11.30
6454;BMP180;3260;52.438;13.502;2023-10-19T11:34:54;99174.00;;;11.10
6454;BMP180;3260;52.438;13.502;2023-10-19T11:37:22;99168.00;;;11.30
6454;BMP180;3260;52.438;13.502;2023-10-19T11:39:50;99168.00;;;10.90
6454;BMP180;3260;52.438;13.502;2023-10-19T11:42:19;99167.00;;;11.30
6454;BMP180;3260;52.438;13.502;2023-10-19T11:44:48;99161.00;;;11.00
6454;BMP180;3260;52.438;13.502;2023-10-19T11:47:17;99158.00;;;11.30
6454;BMP180;3260;52.438;13.502;2023-10-19T11:49:48;99164.00;;;11.70
6454;BMP180;3260;52.438;13.502;2023-10-19T11:52:18;99155.00;;;11.50
6454;BMP180;3260;52.438;13.502;2023-10-19T11:54:48;99151.00;;;11.60
6454;BMP180;3260;52.438;13.502;2023-10-19T11:57:16;99154.00;;;11.40
6454;BMP180;3260;52.438;13.502;2023-10-19T11:59:45;99160.00;;;11.30
6454;BMP180;3260;52.438;13.502;2023-10-19T12:02:24;99161.00;;;11.70
6454;BMP180;3260;52.438;13.502;2023-10-19T12:04:54;99151.00;;;11.40
6454;BMP180;3260;52.438;13.502;2023-10-19T12:07:22;99148.00;;;11.70
6454;BMP180;3260;52.438;13.502;2023-10-19T12:09:50;99145.00;;;11.90
6454;BMP180;3260;52.438;13.502;2023-10-19T12:12:19;99145.00;;;11.70
6454;BMP180;3260;52.438;13.502;2023-10-19T12:14:48;99147.00;;;11.60
6454;BMP180;3260;52.438;13.502;2023-10-19T12:17:17;99147.00;;;11.50
6454;BMP180;3260;52.438;13.502;2023-10-19T12:19:47;99142.00;;;11.60
6454;BMP180;3260;52.438;13.502;2023-10-19T12:22:15;99140.00;;;11.90
6454;BMP180;3260;52.438;13.502;2023-10-19T12:24:44;99136.00;;;11.60
6454;BMP180;3260;52.438;13.502;2023-10-19T12:27:12;99143.00;;;11.90
6454;BMP180;3260;52.438;13.502;2023-10-19T12:29:41;99141.00;;;11.70
6454;BMP180;3260;52.438;13.502;2023-10-19T12:32:11;99140.00;;;11.90
6454;BMP180;3260;52.438;13.502;2023-10-19T12:34:40;99131.00;;;11.40
6454;BMP180;3260;52.438;13.502;2023-10-19T12:37:10;99127.00;;;11.20
6454;BMP180;3260;52.438;13.502;2023-10-19T12:39:40;99124.00;;;11.30
6454;BMP180;3260;52.438;13.502;2023-10-19T12:42:12;99127.00;;;11.60
6454;BMP180;3260;52.438;13.502;2023-10-19T12:44:41;99126.00;;;11.40
6454;BMP180;3260;52.438;13.502;2023-10-19T12:47:14;99127.00;;;11.40
6454;BMP180;3260;52.438;13.502;2023-10-19T12:49:45;99125.00;;;11.70
6454;BMP180;3260;52.438;13.502;2023-10-19T12:52:15;99118.00;;;11.60
6454;BMP180;3260;52.438;13.502;2023-10-19T12:54:43;99120.00;;;11.70
6454;BMP180;3260;52.438;13.502;2023-10-19T12:57:15;99130.00;;;11.60
6454;BMP180;3260;52.438;13.502;2023-10-19T12:59:43;99123.00;;;11.40
6454;BMP180;3260;52.438;13.502;2023-10-19T13:02:12;99124.00;;;11.40
6454;BMP180;3260;52.438;13.502;2023-10-19T13:04:42;99127.00;;;11.60
6454;BMP180;3260;52.438;13.502;2023-10-19T13:07:15;99126.00;;;11.20
6454;BMP180;3260;52.438;13.502;2023-10-19T13:09:43;99133.00;;;11.50
6454;BMP180;3260;52.438;13.502;2023-10-19T13:12:12;99142.00;;;11.50
6454;BMP180;3260;52.438;13.502;2023-10-19T13:14:40;99142.00;;;11.20
6454;BMP180;3260;52.438;13.502;2023-10-19T13:17:11;99126.00;;;11.50
6454;BMP180;3260;52.438;13.502;2023-10-19T13:19:39;99138.00;;;11.40
6454;BMP180;3260;52.438;13.502;2023-10-19T13:22:08;99133.00;;;11.40
6454;BMP180;3260;52.438;13.502;2023-10-19T13:24:37;99131.00;;;10.80
6454;BMP180;3260;52.438;13.502;2023-10-19T13:27:09;99126.00;;;10.80
6454;BMP180;3260;52.438;13.502;2023-10-19T13:29:37;99125.00;;;11.00
6454;BMP180;3260;52.438;13.502;2023-10-19T13:32:08;99124.00;;;10.90
6454;BMP180;3260;52.438;13.502;2023-10-19T13:34:37;99124.00;;;11.10
6454;BMP180;3260;52.438;13.502;2023-10-19T13:37:09;99122.00;;;11.10
6454;BMP180;3260;52.438;13.502;2023-10-19T13:39:40;99106.00;;;11.30
6454;BMP180;3260;52.438;13.502;2023-10-19T13:42:08;99104.00;;;11.10
6454;BMP180;3260;52.438;13.502;2023-10-19T13:44:37;99102.00;;;11.20
6454;BMP180;3260;52.438;13.502;2023-10-19T13:47:05;99107.00;;;11.10
6454;BMP180;3260;52.438;13.502;2023-10-19T13:49:36;99108.00;;;11.20
6454;BMP180;3260;52.438;13.502;2023-10-19T13:52:04;99121.00;;;11.50
6454;BMP180;3260;52.438;13.502;2023-10-19T13:54:32;99107.00;;;11.10
6454;BMP180;3260;52.438;13.502;2023-10-19T13:57:02;99110.00;;;11.30
6454;BMP180;3260;52.438;13.502;2023-10-19T13:59:31;99105.00;;;11.20
6454;BMP180;3260;52.438;13.502;2023-10-19T14:02:00;99112.00;;;11.20
6454;BMP180;3260;52.438;13.502;2023-10-19T14:04:29;99103.00;;;11.30
6454;BMP180;3260;52.438;13.502;2023-10-19T14:06:58;99105.00;;;11.40
6454;BMP180;3260;52.438;13.502;2023-10-19T14:09:27;99093.00;;;11.20
6454;BMP180;3260;52.438;13.502;2023-10-19T14:11:55;99109.00;;;11.20
6454;BMP180;3260;52.438;13.502;2023-10-19T14:14:25;99106.00;;;11.10
6454;BMP180;3260;52.438;13.502;2023-10-19T14:16:54;99107.00;;;11.10
6454;BMP180;3260;52.438;13.502;2023-10-19T14:19:22;99096.00;;;11.20
6454;BMP180;3260;52.438;13.502;2023-10-19T14:21:51;99103.00;;;11.30
6454;BMP180;3260;52.438;13.502;2023-10-19T14:24:19;99107.00;;;11.10
6454;BMP180;3260;52.438;13.502;2023-10-19T14:26:48;99100.00;;;11.10
6454;BMP180;3260;52.438;13.502;2023-10-19T14:29:16;99091.00;;;11.10
6454;BMP180;3260;52.438;13.502;2023-10-19T14:31:46;99085.00;;;11.00
6454;BMP180;3260;52.438;13.502;2023-10-19T14:34:14;99085.00;;;11.10
6454;BMP180;3260;52.438;13.502;2023-10-19T14:36:43;99090.00;;;11.00
6454;BMP180;3260;52.438;13.502;2023-10-19T14:39:11;99081.00;;;11.00
6454;BMP180;3260;52.438;13.502;2023-10-19T14:41:42;99086.00;;;11.00
6454;BMP180;3260;52.438;13.502;2023-10-19T14:44:11;99087.00;;;11.00
6454;BMP180;3260;52.438;13.502;2023-10-19T14:46:39;99078.00;;;10.80
6454;BMP180;3260;52.438;13.502;2023-10-19T14:49:09;99085.00;;;10.80
6454;BMP180;3260;52.438;13.502;2023-10-19T14:51:38;99085.00;;;10.60
6454;BMP180;3260;52.438;13.502;2023-10-19T14:54:06;99088.00;;;11.00
6454;BMP180;3260;52.438;13.502;2023-10-19T14:56:34;99076.00;;;10.90
6454;BMP180;3260;52.438;13.502;2023-10-19T14:59:03;99076.00;;;11.00
6454;BMP180;3260;52.438;13.502;2023-10-19T15:01:32;99064.00;;;10.80
6454;BMP180;3260;52.438;13.502;2023-10-19T15:04:00;99074.00;;;11.00
6454;BMP180;3260;52.438;13.502;2023-10-19T15:06:30;99083.00;;;11.00
6454;BMP180;3260;52.438;13.502;2023-10-19T15:09:03;99075.00;;;10.80
6454;BMP180;3260;52.438;13.502;2023-10-19T15:11:32;99075.00;;;10.80
6454;BMP180;3260;52.438;13.502;2023-10-19T15:14:01;99077.00;;;10.60
6454;BMP180;3260;52.438;13.502;2023-10-19T15:16:31;99088.00;;;10.60
6454;BMP180;3260;52.438;13.502;2023-10-19T15:18:59;99085.00;;;11.00
6454;BMP180;3260;52.438;13.502;2023-10-19T15:21:28;99072.00;;;10.80
6454;BMP180;3260;52.438;13.502;2023-10-19T15:23:58;99082.00;;;10.80
6454;BMP180;3260;52.438;13.502;2023-10-19T15:26:26;99090.00;;;10.90
6454;BMP180;3260;52.438;13.502;2023-10-19T15:28:55;99100.00;;;10.60
6454;BMP180;3260;52.438;13.502;2023-10-19T15:31:23;99083.00;;;10.70
6454;BMP180;3260;52.438;13.502;2023-10-19T15:33:51;99092.00;;;11.00
6454;BMP180;3260;52.438;13.502;2023-10-19T15:36:20;99089.00;;;11.00
6454;BMP180;3260;52.438;13.502;2023-10-19T15:38:48;99087.00;;;11.10
6454;BMP180;3260;52.438;13.502;2023-10-19T15:41:19;99072.00;;;11.00
6454;BMP180;3260;52.438;13.502;2023-10-19T15:43:48;99072.00;;;10.80
6454;BMP180;3260;52.438;13.502;2023-10-19T15:46:17;99060.00;;;10.80
6454;BMP180;3260;52.438;13.502;2023-10-19T15:48:50;99060.00;;;10.70
6454;BMP180;3260;52.438;13.502;2023-10-19T15:51:18;99068.00;;;10.40
6454;BMP180;3260;52.438;13.502;2023-10-19T15:53:47;99063.00;;;10.60
6454;BMP180;3260;52.438;13.502;2023-10-19T15:56:15;99077.00;;;10.20
6454;BMP180;3260;52.438;13.502;2023-10-19T15:58:46;99076.00;;;10.70
6454;BMP180;3260;52.438;13.502;2023-10-19T16:01:15;99088.00;;;10.30
6454;BMP180;3260;52.438;13.502;2023-10-19T16:03:43;99068.00;;;10.50
6454;BMP180;3260;52.438;13.502;2023-10-19T16:06:13;99063.00;;;10.70
6454;BMP180;3260;52.438;13.502;2023-10-19T16:08:42;99067.00;;;10.40
6454;BMP180;3260;52.438;13.502;2023-10-19T16:11:10;98976.00;;;10.50
6454;BMP180;3260;52.438;13.502;2023-10-19T16:13:39;99067.00;;;10.70
6454;BMP180;3260;52.438;13.502;2023-10-19T16:16:10;99071.00;;;10.70
6454;BMP180;3260;52.438;13.502;2023-10-19T16:18:39;99072.00;;;10.60
6454;BMP180;3260;52.438;13.502;2023-10-19T16:21:08;99067.00;;;10.50
6454;BMP180;3260;52.438;13.502;2023-10-19T16:23:37;99065.00;;;10.10
6454;BMP180;3260;52.438;13.502;2023-10-19T16:26:06;99069.00;;;10.20
6454;BMP180;3260;52.438;13.502;2023-10-19T16:28:34;99067.00;;;10.10
6454;BMP180;3260;52.438;13.502;2023-10-19T16:31:03;99067.00;;;10.40
6454;BMP180;3260;52.438;13.502;2023-10-19T16:33:34;99063.00;;;10.20
6454;BMP180;3260;52.438;13.502;2023-10-19T16:36:03;99061.00;;;10.40
6454;BMP180;3260;52.438;13.502;2023-10-19T16:38:31;99062.00;;;10.10
6454;BMP180;3260;52.438;13.502;2023-10-19T16:41:00;99050.00;;;10.30
6454;BMP180;3260;52.438;13.502;2023-10-19T16:43:29;99057.00;;;10.00
6454;BMP180;3260;52.438;13.502;2023-10-19T16:45:58;99052.00;;;10.00
6454;BMP180;3260;52.438;13.502;2023-10-19T16:48:26;99059.00;;;10.20
6454;BMP180;3260;52.438;13.502;2023-10-19T16:51:00;99053.00;;;10.30
6454;BMP180;3260;52.438;13.502;2023-10-19T16:53:29;99063.00;;;10.30
6454;BMP180;3260;52.438;13.502;2023-10-19T16:55:58;99052.00;;;10.20
6454;BMP180;3260;52.438;13.502;2023-10-19T16:58:27;99049.00;;;10.20
6454;BMP180;3260;52.438;13.502;2023-10-19T17:00:56;99056.00;;;10.30
6454;BMP180;3260;52.438;13.502;2023-10-19T17:03:26;99051.00;;;10.30
6454;BMP180;3260;52.438;13.502;2023-10-19T17:05:56;99040.00;;;10.40
6454;BMP180;3260;52.438;13.502;2023-10-19T17:08:26;99049.00;;;10.30
6454;BMP180;3260;52.438;13.502;2023-10-19T17:10:57;99056.00;;;10.20
6454;BMP180;3260;52.438;13.502;2023-10-19T17:13:29;99053.00;;;10.20
6454;BMP180;3260;52.438;13.502;2023-10-19T17:15:57;99042.00;;;10.50
6454;BMP180;3260;52.438;13.502;2023-10-19T17:18:26;99034.00;;;10.30
6454;BMP180;3260;52.438;13.502;2023-10-19T17:20:55;99032.00;;;10.10
6454;BMP180;3260;52.438;13.502;2023-10-19T17:23:23;99038.00;;;10.10
6454;BMP180;3260;52.438;13.502;2023-10-19T17:25:53;99034.00;;;10.10
6454;BMP180;3260;52.438;13.502;2023-10-19T17:28:22;99033.00;;;10.20
6454;BMP180;3260;52.438;13.502;2023-10-19T17:30:50;99033.00;;;10.40
6454;BMP180;3260;52.438;13.502;2023-10-19T17:33:19;99029.00;;;10.40
6454;BMP180;3260;52.438;13.502;2023-10-19T17:35:49;99042.00;;;10.30
6454;BMP180;3260;52.438;13.502;2023-10-19T17:38:18;99039.00;;;10.20
6454;BMP180;3260;52.438;13.502;2023-10-19T17:40:47;99040.00;;;10.20
6454;BMP180;3260;52.438;13.502;2023-10-19T17:43:17;99034.00;;;10.20
6454;BMP180;3260;52.438;13.502;2023-10-19T17:45:46;99016.00;;;10.40
6454;BMP180;3260;52.438;13.502;2023-10-19T17:48:14;99016.00;;;10.30
6454;BMP180;3260;52.438;13.502;2023-10-19T17:50:44;99018.00;;;10.20
6454;BMP180;3260;52.438;13.502;2023-10-19T17:53:12;99021.00;;;10.20
6454;BMP180;3260;52.438;13.502;2023-10-19T17:55:41;99017.00;;;10.50
6454;BMP180;3260;52.438;13.502;2023-10-19T17:58:09;99013.00;;;10.30
6454;BMP180;3260;52.438;13.502;2023-10-19T18:00:39;99011.00;;;10.10
6454;BMP180;3260;52.438;13.502;2023-10-19T18:03:08;99007.00;;;10.40
6454;BMP180;3260;52.438;13.502;2023-10-19T18:05:43;99004.00;;;10.40
6454;BMP180;3260;52.438;13.502;2023-10-19T18:08:12;99001.00;;;10.60
6454;BMP180;3260;52.438;13.502;2023-10-19T18:10:41;98999.00;;;10.20
6454;BMP180;3260;52.438;13.502;2023-10-19T18:13:10;98992.00;;;10.30
6454;BMP180;3260;52.438;13.502;2023-10-19T18:15:40;98987.00;;;10.40
6454;BMP180;3260;52.438;13.502;2023-10-19T18:18:13;98981.00;;;10.40
6454;BMP180;3260;52.438;13.502;2023-10-19T18:20:43;98995.00;;;10.40
6454;BMP180;3260;52.438;13.502;2023-10-19T18:23:13;98994.00;;;10.50
6454;BMP180;3260;52.438;13.502;2023-10-19T18:25:42;98992.00;;;10.50
6454;BMP180;3260;52.438;13.502;2023-10-19T18:28:10;98994.00;;;10.50
6454;BMP180;3260;52.438;13.502;2023-10-19T18:30:40;98988.00;;;10.20
6454;BMP180;3260;52.438;13.502;2023-10-19T18:33:10;98999.00;;;10.60
6454;BMP180;3260;52.438;13.502;2023-10-19T18:35:39;99008.00;;;10.40
6454;BMP180;3260;52.438;13.502;2023-10-19T18:38:09;98995.00;;;10.10
6454;BMP180;3260;52.438;13.502;2023-10-19T18:40:37;99009.00;;;10.10
6454;BMP180;3260;52.438;13.502;2023-10-19T18:43:07;98997.00;;;10.20